Time;durP1;ratioP1;P1;durP2;ratioP2;P2;SDS_P1;SDS_P2;PMS_P1;PMS_P2;Temp;Humidity;BMP_temperature;BMP_pressure;BME280_temperature;BME280_humidity;BME280_pressure;Samples;Min_cycle;Max_cycle;Signal;HPM_P1;HPM_P2
2021/09/24 00:00:54;;;;;;;5.10;2.45;;;15.80;93.40;;;;;;5011541;28;20037;-64
2021/09/24 00:03:20;;;;;;;8.32;2.40;;;15.80;93.20;;;;;;5010771;28;20057;-63
2021/09/24 00:05:46;;;;;;;4.20;2.13;;;15.80;93.20;;;;;;5012777;28;20056;-62
2021/09/24 00:08:11;;;;;;;7.32;2.55;;;15.90;92.90;;;;;;5013665;28;20101;-63
2021/09/24 00:10:38;;;;;;;5.72;2.88;;;15.80;92.90;;;;;;5012778;28;20041;-63
2021/09/24 00:13:03;;;;;;;5.85;2.60;;;15.80;93.20;;;;;;5005978;28;20516;-63
2021/09/24 00:15:29;;;;;;;4.30;2.45;;;15.90;93.10;;;;;;5012750;28;20038;-64
2021/09/24 00:17:55;;;;;;;4.72;2.35;;;15.90;92.50;;;;;;5011776;28;20056;-63
2021/09/24 00:20:20;;;;;;;7.95;3.00;;;15.80;92.60;;;;;;5011486;28;20042;-63
2021/09/24 00:22:46;;;;;;;5.05;2.10;;;15.90;92.40;;;;;;5009801;28;20501;-63
2021/09/24 00:25:12;;;;;;;6.97;2.55;;;15.80;92.50;;;;;;5012295;28;20034;-63
2021/09/24 00:27:38;;;;;;;3.72;2.60;;;15.80;92.60;;;;;;5009871;28;20041;-62
2021/09/24 00:30:05;;;;;;;9.52;2.67;;;15.90;92.30;;;;;;5012819;28;20041;-63
2021/09/24 00:32:31;;;;;;;4.28;2.63;;;15.70;92.10;;;;;;5009900;28;20022;-64
2021/09/24 00:34:56;;;;;;;5.10;2.40;;;15.80;91.90;;;;;;5009914;28;20112;-62
2021/09/24 00:37:22;;;;;;;6.75;2.60;;;15.80;92.20;;;;;;5012827;28;20041;-62
2021/09/24 00:39:48;;;;;;;8.60;2.67;;;15.80;91.70;;;;;;5011298;28;20592;-64
2021/09/24 00:42:13;;;;;;;7.28;2.88;;;15.70;91.70;;;;;;5012317;28;20038;-62
2021/09/24 00:44:50;;;;;;;10.10;2.80;;;15.50;91.70;;;;;;5010465;28;20029;-64
2021/09/24 00:47:16;;;;;;;5.82;3.17;;;15.50;91.90;;;;;;5010308;28;20042;-63
2021/09/24 00:49:42;;;;;;;6.68;2.60;;;15.50;92.00;;;;;;5012839;28;20041;-63
2021/09/24 00:52:08;;;;;;;12.40;2.90;;;15.60;91.90;;;;;;5011971;28;20042;-64
2021/09/24 00:54:34;;;;;;;9.00;3.40;;;15.60;91.90;;;;;;5012381;28;20038;-63
2021/09/24 00:57:02;;;;;;;9.43;3.08;;;15.50;92.00;;;;;;5012709;28;20026;-62
2021/09/24 00:59:28;;;;;;;9.73;2.72;;;15.40;92.30;;;;;;5010629;28;20030;-64
2021/09/24 01:01:54;;;;;;;6.03;2.85;;;15.30;92.40;;;;;;5010733;28;20037;-62
2021/09/24 01:04:20;;;;;;;6.75;2.60;;;15.30;92.10;;;;;;5012134;28;20108;-63
2021/09/24 01:06:46;;;;;;;6.38;2.85;;;15.30;92.30;;;;;;5012506;28;20033;-63
2021/09/24 01:09:12;;;;;;;7.38;2.55;;;15.20;92.40;;;;;;5012635;28;20060;-64
2021/09/24 01:11:38;;;;;;;5.95;2.63;;;15.20;92.40;;;;;;5013203;28;20030;-62
2021/09/24 01:14:04;;;;;;;10.40;3.75;;;15.30;92.20;;;;;;5012006;28;20524;-63
2021/09/24 01:16:31;;;;;;;8.57;3.13;;;15.20;92.30;;;;;;5010481;28;20400;-64
2021/09/24 01:18:56;;;;;;;6.40;3.17;;;15.20;92.30;;;;;;5012000;28;20443;-64
2021/09/24 01:21:22;;;;;;;5.45;2.63;;;15.20;92.40;;;;;;5011298;28;20057;-64
2021/09/24 01:23:48;;;;;;;8.10;2.70;;;15.30;92.30;;;;;;5011029;28;20034;-63
2021/09/24 01:26:14;;;;;;;8.15;2.75;;;15.20;92.50;;;;;;5011671;28;20046;-63
2021/09/24 01:28:44;;;;;;;7.22;2.63;;;15.10;92.40;;;;;;5011994;28;20030;-62
2021/09/24 01:31:11;;;;;;;6.97;3.03;;;15.10;92.40;;;;;;5009590;28;20037;-63
2021/09/24 01:33:37;;;;;;;6.22;2.80;;;15.10;92.40;;;;;;5010238;28;20036;-64
2021/09/24 01:36:03;;;;;;;9.48;2.83;;;15.10;92.40;;;;;;5011144;28;20488;-64
2021/09/24 01:38:28;;;;;;;6.43;2.92;;;15.10;92.50;;;;;;5023246;28;20030;-64
2021/09/24 01:40:54;;;;;;;3.92;2.33;;;15.00;92.40;;;;;;5031064;28;20034;-64
2021/09/24 01:43:19;;;;;;;5.15;2.60;;;15.10;92.60;;;;;;5032209;28;20068;-63
2021/09/24 01:45:45;;;;;;;9.07;3.22;;;15.00;92.60;;;;;;5032737;28;20042;-64
2021/09/24 01:48:10;;;;;;;8.82;2.70;;;15.00;92.50;;;;;;5031733;28;20076;-64
2021/09/24 01:50:36;;;;;;;10.05;3.20;;;14.90;92.50;;;;;;5032613;28;20045;-62
2021/09/24 01:53:02;;;;;;;5.97;3.00;;;14.90;92.80;;;;;;5031912;28;20079;-65
2021/09/24 01:55:27;;;;;;;6.82;3.05;;;14.80;92.80;;;;;;5031928;28;20041;-64
2021/09/24 01:57:53;;;;;;;8.40;3.00;;;14.90;92.90;;;;;;5035459;28;20493;-64
2021/09/24 02:00:18;;;;;;;8.57;2.63;;;15.00;92.90;;;;;;5036244;28;20075;-63
2021/09/24 02:02:44;;;;;;;8.40;2.95;;;15.00;93.00;;;;;;5035926;28;20068;-63
2021/09/24 02:05:11;;;;;;;7.90;3.30;;;15.00;92.90;;;;;;5036231;28;20512;-64
2021/09/24 02:07:36;;;;;;;7.80;2.85;;;15.00;92.90;;;;;;5036082;28;20040;-63
2021/09/24 02:10:05;;;;;;;5.20;3.13;;;14.90;92.90;;;;;;5036277;28;20033;-64
2021/09/24 02:12:30;;;;;;;9.70;3.05;;;15.00;92.80;;;;;;5029904;28;20088;-63
2021/09/24 02:14:56;;;;;;;6.07;3.03;;;14.90;92.80;;;;;;5015203;28;20425;-63
2021/09/24 02:17:21;;;;;;;6.38;3.00;;;14.90;93.20;;;;;;5016351;28;20037;-64
2021/09/24 02:19:47;;;;;;;5.07;3.13;;;14.80;93.10;;;;;;5015940;28;20054;-64
2021/09/24 02:22:12;;;;;;;5.50;2.65;;;14.70;93.30;;;;;;5016081;28;20037;-62
2021/09/24 02:24:38;;;;;;;8.55;3.45;;;14.80;93.40;;;;;;5015851;28;20484;-63
2021/09/24 02:27:04;;;;;;;7.72;3.00;;;14.70;93.40;;;;;;5014598;28;20034;-64
2021/09/24 02:29:29;;;;;;;8.95;2.92;;;14.80;93.50;;;;;;5015633;28;20062;-63
2021/09/24 02:31:55;;;;;;;6.85;3.00;;;14.80;93.50;;;;;;5016076;28;20045;-66
2021/09/24 02:34:21;;;;;;;9.98;3.17;;;14.90;93.40;;;;;;5014505;28;20390;-65
2021/09/24 02:36:47;;;;;;;10.52;2.83;;;14.80;93.50;;;;;;5014848;28;20030;-64
2021/09/24 02:39:13;;;;;;;7.60;2.70;;;14.80;93.50;;;;;;5015879;28;20375;-62
2021/09/24 02:41:39;;;;;;;8.52;2.88;;;14.80;93.60;;;;;;5015632;28;20037;-63
2021/09/24 02:44:08;;;;;;;6.93;2.95;;;14.70;93.80;;;;;;5015672;28;20392;-63
2021/09/24 02:46:34;;;;;;;12.88;3.28;;;14.60;94.20;;;;;;5014566;28;20042;-64
2021/09/24 02:48:59;;;;;;;7.05;3.65;;;14.60;95.60;;;;;;5015525;28;20037;-64
2021/09/24 02:51:26;;;;;;;7.68;2.85;;;14.40;96.50;;;;;;5015514;28;20540;-64
2021/09/24 02:53:51;;;;;;;8.55;3.35;;;14.20;97.80;;;;;;5015117;28;20374;-63
2021/09/24 02:56:17;;;;;;;5.47;3.10;;;14.20;98.70;;;;;;5013868;28;20109;-64
2021/09/24 02:58:43;;;;;;;12.07;3.17;;;14.20;99.20;;;;;;5015949;28;20704;-64
2021/09/24 03:01:08;;;;;;;6.05;2.53;;;14.10;99.70;;;;;;5014008;28;20049;-65
2021/09/24 03:03:34;;;;;;;6.82;3.45;;;14.00;99.90;;;;;;5014931;28;20041;-63
2021/09/24 03:05:59;;;;;;;11.90;3.38;;;13.90;99.90;;;;;;5015518;28;20065;-64
2021/09/24 03:08:25;;;;;;;6.38;2.95;;;13.90;99.90;;;;;;5014400;28;20034;-65
2021/09/24 03:10:51;;;;;;;5.72;3.33;;;13.90;99.90;;;;;;5014345;28;20421;-64
2021/09/24 03:13:16;;;;;;;8.07;3.13;;;13.80;99.90;;;;;;5014853;28;20171;-64
2021/09/24 03:15:42;;;;;;;9.07;3.55;;;13.70;99.90;;;;;;5015420;28;20030;-63
2021/09/24 03:18:07;;;;;;;5.68;3.10;;;13.80;99.90;;;;;;5015192;28;20088;-66
2021/09/24 03:20:33;;;;;;;8.52;3.40;;;14.00;99.90;;;;;;5014779;28;20441;-64
2021/09/24 03:22:58;;;;;;;5.75;3.50;;;14.20;99.20;;;;;;5014876;28;20038;-64
2021/09/24 03:25:24;;;;;;;10.55;4.13;;;14.10;98.80;;;;;;5014814;28;20048;-63
2021/09/24 03:27:50;;;;;;;13.25;3.78;;;14.30;98.00;;;;;;5013973;28;20057;-62
2021/09/24 03:30:16;;;;;;;12.45;4.03;;;14.30;97.60;;;;;;5014394;28;20045;-64
2021/09/24 03:32:43;;;;;;;14.23;4.43;;;14.30;97.80;;;;;;5014876;28;20049;-63
2021/09/24 03:35:09;;;;;;;9.40;3.42;;;14.20;97.80;;;;;;5014032;28;20042;-62
2021/09/24 03:37:35;;;;;;;9.20;3.40;;;14.00;98.40;;;;;;5014694;28;20092;-63
2021/09/24 03:40:00;;;;;;;8.43;3.03;;;14.00;98.70;;;;;;5014475;28;20061;-63
2021/09/24 03:42:26;;;;;;;7.45;3.40;;;14.00;99.50;;;;;;5013909;28;20037;-63
2021/09/24 03:44:52;;;;;;;7.80;3.00;;;14.00;99.90;;;;;;5015105;28;20038;-65
2021/09/24 03:47:18;;;;;;;10.25;3.22;;;13.90;99.90;;;;;;5014490;28;20140;-64
2021/09/24 03:49:43;;;;;;;6.47;3.30;;;13.80;99.90;;;;;;5013357;28;20065;-64
2021/09/24 03:52:09;;;;;;;7.70;3.03;;;13.90;99.90;;;;;;5014258;28;20038;-63
2021/09/24 03:54:34;;;;;;;12.27;4.05;;;14.10;99.90;;;;;;5014690;28;20441;-65
2021/09/24 03:57:00;;;;;;;8.15;3.17;;;14.00;99.90;;;;;;5014585;28;20036;-64
2021/09/24 03:59:27;;;;;;;9.10;3.20;;;14.00;99.80;;;;;;5013284;28;20165;-64
2021/09/24 04:01:52;;;;;;;8.57;3.45;;;14.00;99.90;;;;;;5013756;28;20033;-64
2021/09/24 04:04:18;;;;;;;9.38;3.25;;;13.80;99.90;;;;;;5014165;28;20320;-64
2021/09/24 04:06:43;;;;;;;6.53;3.28;;;13.70;99.90;;;;;;5014425;28;20129;-64
2021/09/24 04:09:10;;;;;;;10.00;3.50;;;13.70;99.90;;;;;;5014009;28;20504;-66
2021/09/24 04:11:37;;;;;;;8.95;4.05;;;13.70;99.90;;;;;;5013767;28;20482;-63
2021/09/24 04:14:03;;;;;;;8.93;4.03;;;13.60;99.90;;;;;;5013780;28;20049;-65
2021/09/24 04:16:28;;;;;;;7.57;3.70;;;13.50;99.90;;;;;;5013344;28;20041;-64
2021/09/24 04:18:54;;;;;;;8.45;3.88;;;13.40;99.90;;;;;;5013350;28;20066;-63
2021/09/24 04:21:20;;;;;;;12.27;3.97;;;13.70;99.90;;;;;;5013747;28;20512;-63
2021/09/24 04:23:45;;;;;;;12.45;4.15;;;13.70;99.90;;;;;;5013410;28;20057;-63
2021/09/24 04:26:11;;;;;;;8.48;3.85;;;13.80;99.90;;;;;;5014069;28;20057;-64
2021/09/24 04:28:36;;;;;;;7.68;3.67;;;13.70;99.90;;;;;;5013057;28;20120;-64
2021/09/24 04:31:02;;;;;;;7.30;3.70;;;13.70;99.90;;;;;;5014435;28;20034;-64
2021/09/24 04:33:28;;;;;;;8.85;3.70;;;13.80;99.90;;;;;;5013919;28;20478;-64
2021/09/24 04:35:53;;;;;;;9.82;3.72;;;13.50;99.90;;;;;;5012352;28;20490;-67
2021/09/24 04:38:19;;;;;;;7.95;3.63;;;13.50;99.90;;;;;;5012366;28;20369;-64
2021/09/24 04:40:45;;;;;;;8.68;3.10;;;13.70;99.90;;;;;;5012488;28;20049;-65
2021/09/24 04:43:10;;;;;;;11.35;4.15;;;13.70;99.90;;;;;;5013526;28;20026;-63
2021/09/24 04:45:36;;;;;;;11.23;3.50;;;13.60;99.90;;;;;;5013924;28;20116;-64
2021/09/24 04:48:02;;;;;;;9.88;3.70;;;13.70;99.90;;;;;;5012188;28;20038;-64
2021/09/24 04:50:27;;;;;;;10.23;3.75;;;13.60;99.90;;;;;;5013805;28;20443;-64
2021/09/24 04:52:53;;;;;;;12.68;4.25;;;13.50;99.90;;;;;;5013187;28;20430;-64
2021/09/24 04:55:19;;;;;;;10.80;3.45;;;13.50;99.90;;;;;;5013311;28;20064;-64
2021/09/24 04:57:45;;;;;;;9.30;3.35;;;13.60;99.90;;;;;;5013757;28;20025;-64
2021/09/24 05:00:11;;;;;;;11.57;4.15;;;13.50;99.90;;;;;;5012000;28;20030;-62
2021/09/24 05:02:38;;;;;;;12.10;3.58;;;13.50;99.90;;;;;;5013481;28;20132;-65
2021/09/24 05:05:04;;;;;;;7.53;3.60;;;13.50;99.90;;;;;;5013076;28;20375;-63
2021/09/24 05:07:30;;;;;;;8.77;3.50;;;13.60;99.90;;;;;;5013788;28;20056;-64
2021/09/24 05:09:55;;;;;;;9.73;3.95;;;13.60;99.90;;;;;;5013970;28;20150;-65
2021/09/24 05:12:21;;;;;;;8.68;4.70;;;13.50;99.90;;;;;;5012905;28;20034;-64
2021/09/24 05:14:47;;;;;;;8.68;4.10;;;13.40;99.90;;;;;;5012739;28;20034;-65
2021/09/24 05:17:13;;;;;;;13.50;4.05;;;13.40;99.90;;;;;;5013333;28;20581;-64
2021/09/24 05:19:38;;;;;;;9.52;4.75;;;13.40;99.90;;;;;;5013156;28;20037;-65
2021/09/24 05:22:05;;;;;;;9.50;4.07;;;13.50;99.90;;;;;;5011598;28;20390;-64
2021/09/24 05:24:30;;;;;;;11.27;6.68;;;13.40;99.90;;;;;;5012657;28;20022;-65
2021/09/24 05:26:56;;;;;;;9.80;4.43;;;13.40;99.90;;;;;;5012042;28;20037;-64
2021/09/24 05:29:21;;;;;;;9.10;4.18;;;13.40;99.90;;;;;;5012496;28;20042;-64
2021/09/24 05:31:48;;;;;;;8.63;3.97;;;13.50;99.90;;;;;;5010912;28;20040;-63
2021/09/24 05:34:14;;;;;;;9.90;4.10;;;13.60;99.90;;;;;;5011000;28;20026;-64
2021/09/24 05:36:40;;;;;;;9.60;4.78;;;13.60;99.90;;;;;;5011307;28;20107;-64
2021/09/24 05:39:05;;;;;;;8.55;4.50;;;13.60;99.90;;;;;;5012643;28;20355;-64
2021/09/24 05:41:32;;;;;;;7.30;4.10;;;13.60;99.90;;;;;;5011468;28;20029;-65
2021/09/24 05:43:57;;;;;;;12.90;5.13;;;13.70;99.90;;;;;;5012724;28;20030;-65
2021/09/24 05:46:23;;;;;;;8.73;4.68;;;13.70;99.90;;;;;;5011751;28;20061;-65
2021/09/24 05:48:48;;;;;;;10.43;4.35;;;13.60;99.90;;;;;;5012701;28;20045;-64
2021/09/24 05:51:14;;;;;;;12.13;4.57;;;13.60;99.90;;;;;;5012657;28;20385;-64
2021/09/24 05:53:40;;;;;;;11.23;5.47;;;13.70;99.90;;;;;;5012564;28;20042;-65
2021/09/24 05:56:06;;;;;;;10.35;4.80;;;13.70;99.90;;;;;;5012530;28;20060;-65
2021/09/24 05:58:32;;;;;;;12.50;5.38;;;13.60;99.90;;;;;;5012680;28;20084;-64
2021/09/24 06:00:58;;;;;;;11.82;4.60;;;13.50;99.90;;;;;;5007790;28;20054;-65
2021/09/24 06:03:23;;;;;;;10.38;4.43;;;13.80;99.90;;;;;;5001603;28;20097;-64
2021/09/24 06:05:49;;;;;;;11.48;5.10;;;13.70;99.90;;;;;;4992970;28;20041;-64
2021/09/24 06:08:15;;;;;;;9.50;5.45;;;13.90;99.90;;;;;;4993219;28;20061;-64
2021/09/24 06:10:41;;;;;;;11.88;5.50;;;13.90;99.90;;;;;;5000741;28;20029;-64
2021/09/24 06:13:07;;;;;;;8.80;4.78;;;13.80;99.90;;;;;;5021336;28;20026;-64
2021/09/24 06:15:33;;;;;;;13.43;5.15;;;13.70;99.90;;;;;;5012394;28;20049;-64
2021/09/24 06:17:59;;;;;;;8.85;4.43;;;13.70;99.90;;;;;;5012956;28;20474;-63
2021/09/24 06:20:25;;;;;;;8.25;4.30;;;13.90;99.90;;;;;;5010924;28;20066;-62
2021/09/24 06:22:51;;;;;;;13.65;5.63;;;13.70;99.90;;;;;;5003900;28;20042;-64
2021/09/24 06:25:18;;;;;;;8.70;4.93;;;13.80;99.90;;;;;;5000590;28;20462;-65
2021/09/24 06:27:43;;;;;;;7.25;4.78;;;13.90;99.90;;;;;;4998777;28;20035;-64
2021/09/24 06:30:12;;;;;;;12.80;4.90;;;13.90;99.90;;;;;;4992347;28;20379;-64
2021/09/24 06:32:38;;;;;;;11.73;4.72;;;13.90;99.90;;;;;;4993165;28;20065;-64
2021/09/24 06:35:05;;;;;;;14.40;4.75;;;13.90;99.90;;;;;;4993146;28;20120;-64
2021/09/24 06:37:30;;;;;;;8.80;4.78;;;14.10;99.90;;;;;;5010798;28;20504;-66
2021/09/24 06:39:56;;;;;;;6.45;4.07;;;14.20;99.90;;;;;;5012961;28;20042;-64
2021/09/24 06:42:22;;;;;;;13.75;4.20;;;14.30;99.90;;;;;;5029597;28;20121;-64
2021/09/24 06:44:47;;;;;;;9.30;4.63;;;14.20;99.90;;;;;;5034542;28;20036;-63
2021/09/24 06:47:15;;;;;;;10.55;4.38;;;14.30;99.90;;;;;;5034319;28;20033;-64
2021/09/24 06:49:41;;;;;;;10.27;4.75;;;14.50;99.90;;;;;;5034059;28;20034;-63
2021/09/24 06:52:07;;;;;;;9.85;4.75;;;14.50;99.90;;;;;;5016656;28;20048;-65
2021/09/24 06:54:33;;;;;;;8.18;4.05;;;14.70;99.90;;;;;;4996235;28;20042;-64
2021/09/24 06:56:58;;;;;;;8.93;4.20;;;14.70;99.90;;;;;;4996444;28;20042;-64
2021/09/24 06:59:24;;;;;;;8.52;4.35;;;14.70;99.90;;;;;;5000251;28;20034;-64
2021/09/24 07:01:50;;;;;;;10.10;4.47;;;14.80;99.90;;;;;;5034035;28;20480;-64
2021/09/24 07:04:18;;;;;;;7.68;3.85;;;14.90;99.90;;;;;;5035469;28;20044;-65
2021/09/24 07:06:44;;;;;;;10.40;4.32;;;14.80;99.90;;;;;;5030653;28;20453;-63
2021/09/24 07:09:10;;;;;;;9.13;4.10;;;14.80;99.90;;;;;;5005768;28;20379;-63
2021/09/24 07:11:36;;;;;;;11.95;3.63;;;14.80;99.90;;;;;;5010087;28;20037;-61
2021/09/24 07:14:08;;;;;;;9.75;4.03;;;14.90;99.90;;;;;;5033895;28;20205;-61
2021/09/24 07:16:38;;;;;;;6.68;3.85;;;14.80;99.90;;;;;;5036038;28;20504;-62
2021/09/24 07:19:05;;;;;;;10.38;4.40;;;14.90;99.90;;;;;;5012727;28;20077;-61
2021/09/24 07:21:31;;;;;;;8.13;4.50;;;15.00;99.80;;;;;;5015283;28;20053;-61
2021/09/24 07:23:58;;;;;;;7.18;3.80;;;15.20;99.30;;;;;;5013494;28;20033;-60
2021/09/24 07:26:24;;;;;;;7.78;3.60;;;15.20;99.30;;;;;;5015280;28;20018;-62
2021/09/24 07:28:50;;;;;;;8.82;4.20;;;15.50;99.00;;;;;;5015129;28;20034;-62
2021/09/24 07:31:15;;;;;;;11.45;3.78;;;15.50;98.50;;;;;;5015380;28;20026;-63
2021/09/24 07:33:41;;;;;;;6.10;3.58;;;15.60;98.50;;;;;;5038623;28;20026;-63
2021/09/24 07:36:07;;;;;;;7.55;3.80;;;15.70;98.30;;;;;;5013568;28;20052;-62
2021/09/24 07:38:32;;;;;;;10.68;3.38;;;15.70;98.40;;;;;;5012010;28;20045;-61
2021/09/24 07:40:58;;;;;;;8.70;3.53;;;15.80;98.10;;;;;;5014891;28;20041;-63
2021/09/24 07:43:24;;;;;;;5.05;3.38;;;15.80;98.20;;;;;;5014520;28;20399;-61
2021/09/24 07:45:49;;;;;;;7.38;3.38;;;15.70;98.10;;;;;;5012316;28;20026;-62
2021/09/24 07:48:15;;;;;;;5.80;3.13;;;15.70;97.90;;;;;;5014783;28;20038;-62
2021/09/24 07:50:41;;;;;;;6.57;3.33;;;15.70;97.80;;;;;;5014960;28;20109;-61
2021/09/24 07:53:07;;;;;;;7.53;3.05;;;15.90;97.10;;;;;;5014928;28;20034;-62
2021/09/24 07:55:33;;;;;;;6.55;3.15;;;15.90;96.50;;;;;;5011241;28;20026;-62
2021/09/24 07:57:59;;;;;;;6.80;3.28;;;15.90;96.50;;;;;;5013554;28;20030;-64
2021/09/24 08:00:26;;;;;;;6.60;3.00;;;16.10;96.10;;;;;;5013288;28;20038;-63
2021/09/24 08:02:54;;;;;;;7.78;3.10;;;16.20;95.80;;;;;;5014592;28;20113;-62
2021/09/24 08:05:20;;;;;;;6.57;3.00;;;16.30;95.80;;;;;;5014072;28;20029;-62
2021/09/24 08:07:45;;;;;;;6.93;2.65;;;16.30;95.00;;;;;;5014474;28;20029;-62
2021/09/24 08:10:11;;;;;;;4.45;2.40;;;16.30;95.00;;;;;;5014520;28;20049;-60
2021/09/24 08:12:37;;;;;;;5.72;2.67;;;16.30;95.10;;;;;;5013524;28;20417;-62
2021/09/24 08:15:03;;;;;;;7.80;2.67;;;16.50;94.60;;;;;;5013718;28;20042;-62
2021/09/24 08:17:29;;;;;;;4.32;2.40;;;16.40;94.50;;;;;;5014706;28;20038;-62
2021/09/24 08:19:54;;;;;;;4.60;2.47;;;16.40;94.60;;;;;;5014407;28;20029;-63
2021/09/24 08:22:20;;;;;;;5.53;2.42;;;16.40;94.50;;;;;;5012751;28;20041;-62
2021/09/24 08:24:46;;;;;;;6.80;2.78;;;16.60;94.40;;;;;;5013929;28;20087;-62
2021/09/24 08:27:11;;;;;;;5.60;2.42;;;16.80;94.40;;;;;;5013677;28;20066;-64
2021/09/24 08:29:37;;;;;;;5.82;2.50;;;17.00;94.40;;;;;;5011884;28;20052;-63
2021/09/24 08:32:04;;;;;;;4.40;2.35;;;17.10;94.00;;;;;;5014056;28;20026;-62
2021/09/24 08:34:30;;;;;;;3.03;2.65;;;17.10;93.90;;;;;;5010840;28;20477;-64
2021/09/24 08:36:55;;;;;;;4.88;2.92;;;17.00;93.90;;;;;;4995693;28;20097;-64
2021/09/24 08:39:21;;;;;;;5.57;2.90;;;17.10;94.00;;;;;;5014924;28;20038;-64
2021/09/24 08:41:46;;;;;;;4.28;2.70;;;17.10;94.00;;;;;;5013498;28;20177;-64
2021/09/24 08:44:12;;;;;;;6.53;2.55;;;17.00;94.40;;;;;;5012018;28;20144;-64
2021/09/24 08:46:37;;;;;;;4.40;2.60;;;17.00;94.30;;;;;;5012663;28;20049;-61
2021/09/24 08:49:05;;;;;;;5.93;2.80;;;16.90;94.10;;;;;;5012974;28;20025;-64
2021/09/24 08:51:31;;;;;;;4.07;2.42;;;17.00;93.70;;;;;;5013152;28;20034;-62
2021/09/24 08:53:57;;;;;;;5.53;2.58;;;16.80;94.20;;;;;;5012110;28;20055;-62
2021/09/24 08:56:23;;;;;;;4.78;2.53;;;17.00;94.00;;;;;;5007210;28;20038;-61
2021/09/24 08:58:49;;;;;;;7.38;3.20;;;16.90;94.30;;;;;;5009964;28;20022;-63
2021/09/24 09:01:15;;;;;;;9.40;3.75;;;16.90;94.80;;;;;;5015025;28;20089;-62
2021/09/24 09:03:43;;;;;;;4.88;2.70;;;16.90;94.90;;;;;;5005101;28;20410;-63
2021/09/24 09:06:11;;;;;;;7.10;3.50;;;16.80;95.20;;;;;;4995803;28;20041;-60
2021/09/24 09:08:37;;;;;;;6.07;3.00;;;16.70;95.30;;;;;;5010829;28;20082;-62
2021/09/24 09:11:10;;;;;;;6.43;3.20;;;16.70;95.10;;;;;;5008782;28;20041;-62
2021/09/24 09:13:39;;;;;;;7.25;2.50;;;17.10;94.80;;;;;;5013772;28;20030;-62
2021/09/24 09:16:08;;;;;;;6.95;2.92;;;17.00;94.70;;;;;;5012438;28;20041;-62
2021/09/24 09:18:36;;;;;;;5.70;3.17;;;17.10;94.50;;;;;;5010754;28;20030;-62
2021/09/24 09:21:05;;;;;;;5.75;2.78;;;17.10;94.30;;;;;;5011246;28;20142;-60
2021/09/24 09:23:33;;;;;;;5.07;2.67;;;17.20;93.80;;;;;;5010437;28;20099;-63
2021/09/24 09:26:04;;;;;;;8.98;2.60;;;17.30;93.10;;;;;;5005153;28;20129;-62
2021/09/24 09:28:40;;;;;;;5.28;2.53;;;17.20;93.50;;;;;;5011485;28;20123;-63
2021/09/24 09:31:24;;;;;;;3.47;2.30;;;17.30;93.30;;;;;;5013016;28;20022;-62
2021/09/24 09:33:53;;;;;;;6.70;2.65;;;17.30;92.80;;;;;;5011382;28;20722;-69
2021/09/24 09:36:24;;;;;;;4.18;2.50;;;17.30;92.40;;;;;;5009009;28;20057;-62
2021/09/24 09:38:50;;;;;;;3.85;2.42;;;17.40;92.20;;;;;;5011266;28;20049;-63
2021/09/24 09:41:17;;;;;;;5.00;2.88;;;17.30;92.60;;;;;;5012680;28;20110;-63
2021/09/24 09:43:56;;;;;;;8.13;2.67;;;17.20;92.70;;;;;;5011924;28;20397;-61
2021/09/24 09:46:24;;;;;;;4.30;2.50;;;17.10;93.20;;;;;;5012888;28;20389;-62
2021/09/24 09:49:07;;;;;;;4.32;2.50;;;17.00;93.30;;;;;;5010266;28;20069;-58
2021/09/24 09:51:33;;;;;;;5.72;2.95;;;17.00;93.30;;;;;;5012071;28;20080;-57
2021/09/24 09:53:59;;;;;;;7.15;2.80;;;17.00;93.60;;;;;;5011699;28;20052;-62
2021/09/24 09:56:39;;;;;;;5.50;2.88;;;17.00;93.70;;;;;;5012321;28;20061;-62
2021/09/24 09:59:28;;;;;;;4.72;3.10;;;16.90;93.90;;;;;;4995010;28;20061;-63
2021/09/24 10:02:09;;;;;;;4.97;2.78;;;16.80;94.30;;;;;;5011560;28;20056;-62
2021/09/24 10:04:45;;;;;;;5.00;2.95;;;16.80;94.30;;;;;;5013182;28;20064;-62
2021/09/24 10:07:16;;;;;;;5.20;2.67;;;16.70;94.20;;;;;;5011640;28;20053;-63
2021/09/24 10:09:42;;;;;;;5.78;2.70;;;16.80;94.20;;;;;;5013397;28;20035;-64
2021/09/24 10:12:23;;;;;;;5.85;2.80;;;16.90;93.90;;;;;;5013603;28;20104;-63
2021/09/24 10:14:51;;;;;;;5.70;3.00;;;17.00;94.00;;;;;;5013490;28;20096;-62
2021/09/24 10:17:18;;;;;;;5.07;2.85;;;17.00;94.00;;;;;;5013456;28;20088;-62
2021/09/24 10:19:45;;;;;;;3.25;2.65;;;17.10;94.00;;;;;;5016809;28;20485;-63
2021/09/24 10:22:11;;;;;;;7.20;2.75;;;17.10;94.10;;;;;;5016146;28;20037;-62
2021/09/24 10:24:38;;;;;;;3.72;2.40;;;17.00;93.90;;;;;;5014229;28;20050;-63
2021/09/24 10:27:06;;;;;;;7.13;3.70;;;17.20;93.50;;;;;;5017016;28;20449;-62
2021/09/24 10:29:35;;;;;;;6.28;3.08;;;17.20;93.60;;;;;;5017036;28;20037;-63
2021/09/24 10:32:16;;;;;;;13.38;3.40;;;17.10;93.70;;;;;;5013912;28;20042;-60
2021/09/24 10:35:01;;;;;;;6.55;2.90;;;17.10;93.70;;;;;;5026530;28;20046;-63
2021/09/24 10:37:30;;;;;;;3.33;2.20;;;17.10;93.80;;;;;;5015517;28;20125;-62
2021/09/24 10:39:59;;;;;;;4.53;2.60;;;17.20;93.50;;;;;;5019793;28;20108;-64
2021/09/24 10:42:35;;;;;;;3.38;2.30;;;17.40;93.30;;;;;;5015868;28;20120;-63
2021/09/24 10:45:35;;;;;;;6.15;2.55;;;17.30;93.30;;;;;;5017046;28;20128;-63
2021/09/24 10:48:22;;;;;;;4.75;2.75;;;17.30;93.30;;;;;;5019603;28;20507;-64
2021/09/24 10:51:03;;;;;;;3.53;2.20;;;17.50;92.90;;;;;;5020222;28;20026;-64
2021/09/24 10:53:48;;;;;;;5.82;2.40;;;17.50;92.30;;;;;;5019458;28;20049;-61
2021/09/24 10:56:14;;;;;;;2.97;2.22;;;17.50;92.00;;;;;;5021677;28;20042;-62
2021/09/24 10:58:41;;;;;;;4.47;2.10;;;17.40;92.30;;;;;;5030810;28;20096;-62
2021/09/24 11:01:27;;;;;;;2.30;2.10;;;17.30;92.20;;;;;;5035042;28;20107;-64
2021/09/24 11:04:12;;;;;;;3.72;2.20;;;17.20;92.50;;;;;;5034129;28;20041;-62
2021/09/24 11:06:37;;;;;;;;;;;17.20;92.60;;;;;;5018493;28;20033;-62
2021/09/24 11:09:10;;;;;;;5.93;2.30;;;17.30;92.60;;;;;;5034407;28;20447;-64
2021/09/24 11:11:39;;;;;;;4.13;2.70;;;17.30;92.70;;;;;;5012894;28;20048;-64
2021/09/24 11:14:38;;;;;;;7.30;2.08;;;17.40;92.80;;;;;;5013778;28;20030;-61
2021/09/24 11:17:07;;;;;;;5.53;2.30;;;17.60;92.60;;;;;;5014024;28;20042;-60
2021/09/24 11:19:39;;;;;;;4.43;2.38;;;17.60;92.80;;;;;;5015082;28;20116;-61
2021/09/24 11:22:13;;;;;;;7.05;2.50;;;17.70;92.30;;;;;;5002639;28;20037;-61
2021/09/24 11:24:48;;;;;;;5.72;2.78;;;17.80;92.50;;;;;;5014215;28;20453;-62
2021/09/24 11:27:30;;;;;;;3.47;2.30;;;17.80;92.20;;;;;;5012087;28;20042;-60
2021/09/24 11:30:02;;;;;;;4.18;2.45;;;17.70;92.40;;;;;;5022776;28;20025;-63
2021/09/24 11:32:39;;;;;;;3.58;2.38;;;17.50;92.80;;;;;;5034123;28;20492;-63
2021/09/24 11:35:06;;;;;;;5.10;2.50;;;17.50;92.60;;;;;;5034693;28;20155;-61
2021/09/24 11:37:34;;;;;;;5.85;2.50;;;17.30;93.00;;;;;;5015682;28;20040;-63
2021/09/24 11:40:11;;;;;;;3.42;2.65;;;17.40;93.00;;;;;;5015333;28;20554;-61
2021/09/24 11:42:45;;;;;;;5.30;2.95;;;17.60;92.80;;;;;;5015270;28;20425;-61
2021/09/24 11:45:23;;;;;;;6.15;2.53;;;17.70;92.90;;;;;;5014681;28;20038;-63
2021/09/24 11:48:03;;;;;;;4.43;2.65;;;17.80;92.90;;;;;;5015585;28;20714;-61
2021/09/24 11:50:33;;;;;;;7.50;2.65;;;17.80;92.90;;;;;;5014712;28;20037;-63
2021/09/24 11:53:02;;;;;;;4.35;2.70;;;17.70;93.20;;;;;;4997362;28;20045;-63
2021/09/24 11:55:33;;;;;;;4.45;2.80;;;17.60;93.50;;;;;;5014316;28;20034;-64
2021/09/24 11:58:07;;;;;;;6.65;3.38;;;17.50;93.70;;;;;;5015157;28;20081;-62
2021/09/24 12:00:44;;;;;;;9.30;3.75;;;17.40;94.00;;;;;;5015099;28;20033;-60
2021/09/24 12:03:23;;;;;;;10.27;4.07;;;17.50;94.00;;;;;;5014895;28;20034;-61
2021/09/24 12:05:52;;;;;;;5.32;3.90;;;17.50;94.10;;;;;;5014196;28;20038;-61
2021/09/24 12:08:50;;;;;;;8.73;3.80;;;17.40;94.20;;;;;;5014816;28;20034;-62
2021/09/24 12:11:22;;;;;;;8.60;3.65;;;17.20;94.60;;;;;;5014644;28;20363;-61
2021/09/24 12:13:57;;;;;;;6.82;3.75;;;17.30;94.50;;;;;;5013932;28;20485;-62
2021/09/24 12:16:30;;;;;;;5.07;3.92;;;17.30;94.70;;;;;;5014144;28;20084;-62
2021/09/24 12:19:02;;;;;;;7.88;4.45;;;17.30;94.50;;;;;;5014532;28;20048;-63
2021/09/24 12:21:48;;;;;;;6.88;4.55;;;17.30;94.40;;;;;;5014248;28;20497;-62
2021/09/24 12:24:15;;;;;;;5.97;4.15;;;17.30;94.50;;;;;;5012876;28;20049;-61
2021/09/24 12:26:44;;;;;;;9.32;4.28;;;17.10;95.10;;;;;;5014175;28;20030;-62
2021/09/24 12:29:15;;;;;;;8.55;4.10;;;17.20;95.00;;;;;;5014123;28;20085;-62
2021/09/24 12:31:48;;;;;;;6.05;4.35;;;17.30;94.70;;;;;;5012642;28;20042;-63
2021/09/24 12:34:17;;;;;;;6.05;4.20;;;17.30;94.60;;;;;;5012238;28;20485;-63
2021/09/24 12:36:57;;;;;;;8.40;4.13;;;17.30;94.60;;;;;;5013527;28;20490;-62
2021/09/24 12:39:25;;;;;;;5.38;3.20;;;17.40;94.40;;;;;;5014039;28;20062;-62
2021/09/24 12:41:51;;;;;;;4.82;3.47;;;17.50;94.30;;;;;;5013242;28;20030;-63
2021/09/24 12:44:17;;;;;;;5.93;3.30;;;17.60;94.30;;;;;;5014075;28;20029;-62
2021/09/24 12:46:47;;;;;;;5.70;3.08;;;17.60;94.30;;;;;;5014012;28;20517;-60
2021/09/24 12:49:13;;;;;;;7.07;3.20;;;17.50;94.40;;;;;;5014191;28;20038;-63